Minocqua, Wisconsin
Current Conditions -  °F | °C
As of 8:55 AM on Monday 22 Dec 2014 (Local Time) from KARV Reporting Station
Haze Haze  
Wind Chill: 25°   Ceiling: 300
Heat Index: 34°   Visibility: 2.5mi
Dew Point: 32°   Wind: 13mph
Humidity: 94%   Direction: 150°SSE
Pressure: 29.79"   Gusts: 17mph
Location:  45.93°N, 89.73°W
Report Text: KARV 221455Z AUTO 15011G15KT 2 1/2SM BR OVC003 01/00 A2979 RMK AO2 T00100002
Loading
Personal Weather Stations






























Interactive Weather Map New forecast layout! Learn more

10-Day Weather Forecast

Advertisements
Track Severe Weather on mobile